Time,TemperatureF,DewpointF,PressureIn,WindDirection,WindDirectionDegrees,WindSpeedMPH,WindSpeedGustMPH,Humidity,HourlyPrecipIn,Conditions,Clouds,dailyrainin,SoftwareType,DateUTC
2013-02-04 00:00:00,46.8,36.2,29.72,SE,131,9.0,-999.0,47,0.00,,,0.00,Custom/Perl,2013-02-04 06:00:00,
2013-02-04 00:05:00,46.9,36.3,29.72,SW,233,3.0,-999.0,47,0.00,,,0.00,Custom/Perl,2013-02-04 06:05:00,
2013-02-04 00:11:00,47.0,36.4,29.72,SE,136,5.0,-999.0,47,0.00,,,0.00,Custom/Perl,2013-02-04 06:11:00,
2013-02-04 00:16:00,47.2,36.6,29.71,SSW,209,3.0,-999.0,47,0.00,,,0.00,Custom/Perl,2013-02-04 06:16:00,
2013-02-04 00:21:00,47.3,36.7,29.72,SE,134,4.0,-999.0,47,0.00,,,0.00,Custom/Perl,2013-02-04 06:21:00,
2013-02-04 00:26:00,47.2,36.6,29.71,SSE,153,5.0,-999.0,47,0.00,,,0.00,Custom/Perl,2013-02-04 06:26:00,
2013-02-04 00:31:00,47.1,36.5,29.71,West,262,2.0,-999.0,47,0.00,,,0.00,Custom/Perl,2013-02-04 06:31:00,
2013-02-04 00:37:00,47.0,36.6,29.71,SE,134,5.0,-999.0,48,0.00,,,0.00,Custom/Perl,2013-02-04 06:37:00,
2013-02-04 00:42:00,47.1,36.5,29.71,SW,214,2.0,-999.0,47,0.00,,,0.00,Custom/Perl,2013-02-04 06:42:00,
2013-02-04 00:47:00,47.0,36.6,29.70,SSE,155,2.0,-999.0,48,0.00,,,0.00,Custom/Perl,2013-02-04 06:47:00,
2013-02-04 00:52:00,47.1,36.7,29.70,WSW,255,5.0,-999.0,48,0.00,,,0.00,Custom/Perl,2013-02-04 06:52:00,
2013-02-04 00:58:00,47.2,36.8,29.70,South,169,1.0,-999.0,48,0.00,,,0.00,Custom/Perl,2013-02-04 06:58:00,
2013-02-04 01:03:00,47.2,36.8,29.70,SSE,153,3.0,-999.0,48,0.00,,,0.00,Custom/Perl,2013-02-04 07:03:00,
2013-02-04 01:08:00,47.2,36.6,29.70,SSE,154,5.0,-999.0,47,0.00,,,0.00,Custom/Perl,2013-02-04 07:08:00,
2013-02-04 01:13:00,47.4,36.8,29.69,SW,232,2.0,-999.0,47,0.00,,,0.00,Custom/Perl,2013-02-04 07:13:00,
2013-02-04 01:18:00,47.4,36.8,29.69,South,186,2.0,-999.0,47,0.00,,,0.00,Custom/Perl,2013-02-04 07:18:00,
2013-02-04 01:24:00,47.4,36.8,29.69,ESE,112,5.0,-999.0,47,0.00,,,0.00,Custom/Perl,2013-02-04 07:24:00,
2013-02-04 01:29:00,47.3,36.9,29.69,SW,229,3.0,-999.0,48,0.00,,,0.00,Custom/Perl,2013-02-04 07:29:00,
2013-02-04 01:34:00,47.2,36.8,29.69,SSW,193,2.0,-999.0,48,0.00,,,0.00,Custom/Perl,2013-02-04 07:34:00,
2013-02-04 01:39:00,47.1,36.7,29.68,South,175,5.0,-999.0,48,0.00,,,0.00,Custom/Perl,2013-02-04 07:39:00,
2013-02-04 01:45:00,47.2,36.8,29.68,SSW,209,2.0,-999.0,48,0.00,,,0.00,Custom/Perl,2013-02-04 07:45:00,
2013-02-04 01:50:00,47.2,36.8,29.68,South,175,5.0,-999.0,48,0.00,,,0.00,Custom/Perl,2013-02-04 07:50:00,
2013-02-04 01:55:00,47.2,36.8,29.68,SW,230,6.0,-999.0,48,0.00,,,0.00,Custom/Perl,2013-02-04 07:55:00,
2013-02-04 02:00:00,47.2,36.8,29.67,SSE,162,9.0,-999.0,48,0.00,,,0.00,Custom/Perl,2013-02-04 08:00:00,
2013-02-04 02:05:00,47.3,36.9,29.67,ESE,111,1.0,-999.0,48,0.00,,,0.00,Custom/Perl,2013-02-04 08:05:00,
2013-02-04 02:11:00,47.3,36.9,29.67,SSE,158,4.0,-999.0,48,0.00,,,0.00,Custom/Perl,2013-02-04 08:11:00,
2013-02-04 02:16:00,47.3,36.9,29.67,SSW,203,4.0,-999.0,48,0.00,,,0.00,Custom/Perl,2013-02-04 08:16:00,
2013-02-04 02:21:00,47.5,37.1,29.67,West,261,3.0,-999.0,48,0.00,,,0.00,Custom/Perl,2013-02-04 08:21:00,
2013-02-04 02:26:00,47.5,37.1,29.67,WSW,237,2.0,-999.0,48,0.00,,,0.00,Custom/Perl,2013-02-04 08:26:00,
2013-02-04 02:32:00,47.5,37.1,29.67,SSE,153,2.0,-999.0,48,0.00,,,0.00,Custom/Perl,2013-02-04 08:32:00,
2013-02-04 02:37:00,47.6,37.2,29.67,NW,313,0.0,-999.0,48,0.00,,,0.00,Custom/Perl,2013-02-04 08:37:00,
2013-02-04 02:42:00,47.8,37.4,29.67,SE,128,2.0,-999.0,48,0.00,,,0.00,Custom/Perl,2013-02-04 08:42:00,
2013-02-04 02:47:00,47.9,37.5,29.67,West,260,5.0,-999.0,48,0.00,,,0.00,Custom/Perl,2013-02-04 08:47:00,
2013-02-04 02:52:00,48.1,37.5,29.67,ESE,110,4.0,-999.0,47,0.00,,,0.00,Custom/Perl,2013-02-04 08:52:00,
2013-02-04 02:58:00,48.0,37.6,29.67,SSE,162,1.0,-999.0,48,0.00,,,0.00,Custom/Perl,2013-02-04 08:58:00,
2013-02-04 03:03:00,48.0,37.6,29.68,West,269,3.0,-999.0,48,0.00,,,0.00,Custom/Perl,2013-02-04 09:03:00,
2013-02-04 03:08:00,47.7,37.3,29.69,NNW,329,2.0,-999.0,48,0.00,,,0.00,Custom/Perl,2013-02-04 09:08:00,
2013-02-04 03:13:00,47.4,37.2,29.68,West,279,7.0,-999.0,49,0.00,,,0.00,Custom/Perl,2013-02-04 09:13:00,
2013-02-04 03:19:00,47.3,37.1,29.68,West,276,7.0,-999.0,49,0.00,,,0.00,Custom/Perl,2013-02-04 09:19:00,
2013-02-04 03:24:00,47.3,37.1,29.69,ESE,103,1.0,-999.0,49,0.00,,,0.00,Custom/Perl,2013-02-04 09:24:00,
2013-02-04 03:29:00,47.0,36.8,29.68,WNW,290,3.0,-999.0,49,0.00,,,0.00,Custom/Perl,2013-02-04 09:29:00,
2013-02-04 03:34:00,46.6,36.6,29.69,WNW,283,0.0,-999.0,50,0.00,,,0.00,Custom/Perl,2013-02-04 09:34:00,
2013-02-04 03:39:00,46.3,36.5,29.69,WNW,300,2.0,-999.0,51,0.00,,,0.00,Custom/Perl,2013-02-04 09:39:00,
2013-02-04 03:45:00,46.0,36.2,29.69,WSW,248,1.0,-999.0,51,0.00,,,0.00,Custom/Perl,2013-02-04 09:45:00,
2013-02-04 03:50:00,45.8,36.2,29.69,ESE,111,2.0,-999.0,52,0.00,,,0.00,Custom/Perl,2013-02-04 09:50:00,
2013-02-04 03:55:00,45.7,36.1,29.68,NW,310,2.0,-999.0,52,0.00,,,0.00,Custom/Perl,2013-02-04 09:55:00,
2013-02-04 04:00:00,45.5,35.9,29.69,West,266,3.0,-999.0,52,0.00,,,0.00,Custom/Perl,2013-02-04 10:00:00,
2013-02-04 04:06:00,45.4,35.8,29.68,WNW,296,2.0,-999.0,52,0.00,,,0.00,Custom/Perl,2013-02-04 10:06:00,
2013-02-04 04:11:00,45.2,35.8,29.68,ESE,119,0.0,-999.0,53,0.00,,,0.00,Custom/Perl,2013-02-04 10:11:00,
2013-02-04 04:16:00,45.0,35.6,29.68,NNE,20,0.0,-999.0,53,0.00,,,0.00,Custom/Perl,2013-02-04 10:16:00,
2013-02-04 04:21:00,44.8,35.6,29.68,SE,143,0.0,-999.0,54,0.00,,,0.00,Custom/Perl,2013-02-04 10:21:00,
2013-02-04 04:26:00,44.6,35.4,29.68,West,278,2.0,-999.0,54,0.00,,,0.00,Custom/Perl,2013-02-04 10:26:00,
2013-02-04 04:32:00,44.4,35.2,29.69,SSE,149,0.0,-999.0,54,0.00,,,0.00,Custom/Perl,2013-02-04 10:32:00,
2013-02-04 04:37:00,44.1,35.1,29.69,West,275,0.0,-999.0,55,0.00,,,0.00,Custom/Perl,2013-02-04 10:37:00,
2013-02-04 04:42:00,43.8,34.8,29.69,West,275,0.0,-999.0,55,0.00,,,0.00,Custom/Perl,2013-02-04 10:42:00,
2013-02-04 04:47:00,43.4,34.6,29.68,West,275,0.0,-999.0,56,0.00,,,0.00,Custom/Perl,2013-02-04 10:47:00,
2013-02-04 04:53:00,43.0,34.4,29.69,West,275,0.0,-999.0,57,0.00,,,0.00,Custom/Perl,2013-02-04 10:53:00,
2013-02-04 04:58:00,42.6,34.0,29.69,SSW,203,0.0,-999.0,57,0.00,,,0.00,Custom/Perl,2013-02-04 10:58:00,
2013-02-04 05:03:00,42.2,33.8,29.69,SSW,205,0.0,-999.0,58,0.00,,,0.00,Custom/Perl,2013-02-04 11:03:00,
2013-02-04 05:08:00,42.0,33.8,29.69,SSW,205,0.0,-999.0,59,0.00,,,0.00,Custom/Perl,2013-02-04 11:08:00,
2013-02-04 05:13:00,41.9,33.7,29.69,SSW,205,0.0,-999.0,59,0.00,,,0.00,Custom/Perl,2013-02-04 11:13:00,
2013-02-04 05:19:00,41.3,33.1,29.69,SSW,205,0.0,-999.0,59,0.00,,,0.00,Custom/Perl,2013-02-04 11:19:00,
2013-02-04 05:24:00,40.9,33.1,29.69,SSW,205,0.0,-999.0,61,0.00,,,0.00,Custom/Perl,2013-02-04 11:24:00,
2013-02-04 05:29:00,40.3,32.5,29.69,SSW,205,0.0,-999.0,61,0.00,,,0.00,Custom/Perl,2013-02-04 11:29:00,
2013-02-04 05:34:00,39.3,31.7,29.69,SSW,205,0.0,-999.0,62,0.00,,,0.00,Custom/Perl,2013-02-04 11:34:00,
2013-02-04 05:40:00,38.1,31.1,29.69,SSW,205,0.0,-999.0,65,0.00,,,0.00,Custom/Perl,2013-02-04 11:40:00,
2013-02-04 05:45:00,37.1,30.7,29.69,SSW,205,0.0,-999.0,68,0.00,,,0.00,Custom/Perl,2013-02-04 11:45:00,
2013-02-04 05:50:00,37.3,31.1,29.69,SSW,205,0.0,-999.0,69,0.00,,,0.00,Custom/Perl,2013-02-04 11:50:00,
2013-02-04 05:55:00,37.3,30.7,29.69,SSW,205,0.0,-999.0,67,0.00,,,0.00,Custom/Perl,2013-02-04 11:55:00,
2013-02-04 06:01:00,36.7,30.3,29.69,SSW,205,0.0,-999.0,68,0.00,,,0.00,Custom/Perl,2013-02-04 12:01:00,
2013-02-04 06:06:00,36.0,29.8,29.69,SSW,205,0.0,-999.0,69,0.00,,,0.00,Custom/Perl,2013-02-04 12:06:00,
2013-02-04 06:11:00,35.3,29.3,29.69,SSW,205,0.0,-999.0,70,0.00,,,0.00,Custom/Perl,2013-02-04 12:11:00,
2013-02-04 06:16:00,34.5,28.7,29.69,SSW,205,0.0,-999.0,71,0.00,,,0.00,Custom/Perl,2013-02-04 12:16:00,
2013-02-04 06:21:00,34.2,28.8,29.69,SSW,205,0.0,-999.0,73,0.00,,,0.00,Custom/Perl,2013-02-04 12:21:00,
2013-02-04 06:27:00,34.3,29.1,29.69,SSW,205,0.0,-999.0,74,0.00,,,0.00,Custom/Perl,2013-02-04 12:27:00,
2013-02-04 06:32:00,34.4,29.2,29.69,SSW,205,0.0,-999.0,74,0.00,,,0.00,Custom/Perl,2013-02-04 12:32:00,
2013-02-04 06:37:00,34.7,29.3,29.69,SSW,205,0.0,-999.0,73,0.00,,,0.00,Custom/Perl,2013-02-04 12:37:00,
2013-02-04 06:42:00,35.0,29.8,29.70,SSW,205,0.0,-999.0,74,0.00,,,0.00,Custom/Perl,2013-02-04 12:42:00,
2013-02-04 06:48:00,35.1,29.5,29.70,SSW,205,0.0,-999.0,72,0.00,,,0.00,Custom/Perl,2013-02-04 12:48:00,
2013-02-04 06:53:00,35.4,30.0,29.70,SSW,205,0.0,-999.0,73,0.00,,,0.00,Custom/Perl,2013-02-04 12:53:00,
2013-02-04 06:58:00,35.6,30.0,29.71,SW,217,0.0,-999.0,72,0.00,,,0.00,Custom/Perl,2013-02-04 12:58:00,
2013-02-04 07:03:00,35.9,30.3,29.71,SW,217,1.0,-999.0,72,0.00,,,0.00,Custom/Perl,2013-02-04 13:03:00,
2013-02-04 07:08:00,36.1,30.3,29.72,WNW,302,0.0,-999.0,71,0.00,,,0.00,Custom/Perl,2013-02-04 13:08:00,
2013-02-04 07:14:00,36.4,30.6,29.72,NNW,336,1.0,-999.0,71,0.00,,,0.00,Custom/Perl,2013-02-04 13:14:00,
2013-02-04 07:19:00,37.2,31.4,29.72,NNW,340,2.0,-999.0,71,0.00,,,0.00,Custom/Perl,2013-02-04 13:19:00,
2013-02-04 07:24:00,37.9,31.9,29.72,NW,321,1.0,-999.0,70,0.00,,,0.00,Custom/Perl,2013-02-04 13:24:00,
2013-02-04 07:29:00,38.3,32.1,29.73,NNW,342,4.0,-999.0,69,0.00,,,0.00,Custom/Perl,2013-02-04 13:29:00,
2013-02-04 07:35:00,38.7,32.3,29.73,NW,321,5.0,-999.0,68,0.00,,,0.00,Custom/Perl,2013-02-04 13:35:00,
2013-02-04 07:40:00,38.8,32.4,29.73,NW,319,3.0,-999.0,68,0.00,,,0.00,Custom/Perl,2013-02-04 13:40:00,
2013-02-04 07:45:00,38.6,32.2,29.73,NW,313,3.0,-999.0,68,0.00,,,0.00,Custom/Perl,2013-02-04 13:45:00,
2013-02-04 07:50:00,38.5,32.1,29.74,NW,321,2.0,-999.0,68,0.00,,,0.00,Custom/Perl,2013-02-04 13:50:00,
2013-02-04 07:55:00,38.7,32.3,29.74,NW,326,4.0,-999.0,68,0.00,,,0.00,Custom/Perl,2013-02-04 13:55:00,
2013-02-04 08:01:00,38.7,32.3,29.74,NW,304,3.0,-999.0,68,0.00,,,0.00,Custom/Perl,2013-02-04 14:01:00,
2013-02-04 08:06:00,38.5,32.1,29.75,NW,316,3.0,-999.0,68,0.00,,,0.00,Custom/Perl,2013-02-04 14:06:00,
2013-02-04 08:11:00,38.6,32.2,29.75,NNW,338,5.0,-999.0,68,0.00,,,0.00,Custom/Perl,2013-02-04 14:11:00,
2013-02-04 08:16:00,38.7,32.3,29.75,NW,319,6.0,-999.0,68,0.00,,,0.00,Custom/Perl,2013-02-04 14:16:00,
2013-02-04 08:21:00,38.8,32.4,29.76,NW,304,7.0,-999.0,68,0.00,,,0.00,Custom/Perl,2013-02-04 14:21:00,
2013-02-04 08:27:00,39.0,32.6,29.76,WNW,297,2.0,-999.0,68,0.00,,,0.00,Custom/Perl,2013-02-04 14:27:00,
2013-02-04 08:32:00,39.1,32.7,29.76,North,358,4.0,-999.0,68,0.00,,,0.00,Custom/Perl,2013-02-04 14:32:00,
2013-02-04 08:37:00,39.3,32.9,29.76,SW,221,3.0,-999.0,68,0.00,,,0.00,Custom/Perl,2013-02-04 14:37:00,
2013-02-04 08:42:00,39.5,32.9,29.76,NW,326,4.0,-999.0,67,0.00,,,0.00,Custom/Perl,2013-02-04 14:42:00,
2013-02-04 08:48:00,39.6,33.0,29.76,NW,307,3.0,-999.0,67,0.00,,,0.00,Custom/Perl,2013-02-04 14:48:00,
2013-02-04 08:53:00,39.7,33.1,29.77,NNW,330,5.0,-999.0,67,0.00,,,0.00,Custom/Perl,2013-02-04 14:53:00,
2013-02-04 08:58:00,39.6,33.0,29.77,NNW,327,7.0,-999.0,67,0.00,,,0.00,Custom/Perl,2013-02-04 14:58:00,
2013-02-04 09:03:00,39.7,33.1,29.77,WNW,297,9.0,-999.0,67,0.00,,,0.00,Custom/Perl,2013-02-04 15:03:00,
2013-02-04 09:08:00,39.9,33.1,29.77,NNW,329,3.0,-999.0,66,0.00,,,0.00,Custom/Perl,2013-02-04 15:08:00,
2013-02-04 09:14:00,40.0,33.2,29.77,WNW,299,4.0,-999.0,66,0.00,,,0.00,Custom/Perl,2013-02-04 15:14:00,
2013-02-04 09:19:00,40.2,33.4,29.77,NW,316,4.0,-999.0,66,0.00,,,0.00,Custom/Perl,2013-02-04 15:19:00,
2013-02-04 09:24:00,40.4,33.4,29.78,North,352,5.0,-999.0,65,0.00,,,0.00,Custom/Perl,2013-02-04 15:24:00,
2013-02-04 09:29:00,40.6,33.6,29.78,WSW,255,3.0,-999.0,65,0.00,,,0.00,Custom/Perl,2013-02-04 15:29:00,
2013-02-04 09:34:00,40.8,33.6,29.78,NW,307,7.0,-999.0,64,0.00,,,0.00,Custom/Perl,2013-02-04 15:34:00,
2013-02-04 09:40:00,40.8,33.6,29.78,NNE,15,6.0,-999.0,64,0.00,,,0.00,Custom/Perl,2013-02-04 15:40:00,
2013-02-04 09:45:00,40.9,33.7,29.78,NW,319,4.0,-999.0,64,0.00,,,0.00,Custom/Perl,2013-02-04 15:45:00,
2013-02-04 09:50:00,41.1,33.9,29.78,East,79,9.0,-999.0,64,0.00,,,0.00,Custom/Perl,2013-02-04 15:50:00,
2013-02-04 09:55:00,41.2,33.8,29.78,SE,135,4.0,-999.0,63,0.00,,,0.00,Custom/Perl,2013-02-04 15:55:00,
2013-02-04 10:01:00,41.3,33.9,29.78,West,261,4.0,-999.0,63,0.00,,,0.00,Custom/Perl,2013-02-04 16:01:00,
2013-02-04 10:06:00,41.5,33.9,29.79,NW,320,5.0,-999.0,62,0.00,,,0.00,Custom/Perl,2013-02-04 16:06:00,
2013-02-04 10:11:00,41.5,34.1,29.79,NW,326,6.0,-999.0,63,0.00,,,0.00,Custom/Perl,2013-02-04 16:11:00,
2013-02-04 10:16:00,42.0,34.6,29.79,North,11,4.0,-999.0,63,0.00,,,0.00,Custom/Perl,2013-02-04 16:16:00,
2013-02-04 10:21:00,42.3,34.7,29.80,NW,321,5.0,-999.0,62,0.00,,,0.00,Custom/Perl,2013-02-04 16:21:00,
2013-02-04 10:27:00,42.3,34.7,29.80,NNW,345,3.0,-999.0,62,0.00,,,0.00,Custom/Perl,2013-02-04 16:27:00,
2013-02-04 10:32:00,42.5,34.9,29.80,NW,326,6.0,-999.0,62,0.00,,,0.00,Custom/Perl,2013-02-04 16:32:00,
2013-02-04 10:37:00,42.1,34.5,29.80,NW,306,6.0,-999.0,62,0.00,,,0.00,Custom/Perl,2013-02-04 16:37:00,
2013-02-04 10:42:00,42.4,34.8,29.81,NNE,13,7.0,-999.0,62,0.00,,,0.00,Custom/Perl,2013-02-04 16:42:00,
2013-02-04 10:48:00,42.2,34.6,29.81,WNW,282,2.0,-999.0,62,0.00,,,0.00,Custom/Perl,2013-02-04 16:48:00,
2013-02-04 10:53:00,42.6,35.0,29.81,West,270,3.0,-999.0,62,0.00,,,0.00,Custom/Perl,2013-02-04 16:53:00,
2013-02-04 10:58:00,42.7,35.1,29.81,NE,39,4.0,-999.0,62,0.00,,,0.00,Custom/Perl,2013-02-04 16:58:00,
2013-02-04 11:03:00,42.4,34.8,29.82,NW,314,7.0,-999.0,62,0.00,,,0.00,Custom/Perl,2013-02-04 17:03:00,
2013-02-04 11:08:00,42.7,34.9,29.82,NE,53,3.0,-999.0,61,0.00,,,0.00,Custom/Perl,2013-02-04 17:08:00,
2013-02-04 11:14:00,42.6,34.6,29.82,NNW,329,6.0,-999.0,60,0.00,,,0.00,Custom/Perl,2013-02-04 17:14:00,
2013-02-04 11:19:00,42.8,35.0,29.83,NE,56,4.0,-999.0,61,0.00,,,0.00,Custom/Perl,2013-02-04 17:19:00,
2013-02-04 11:24:00,43.2,35.0,29.83,NW,312,6.0,-999.0,59,0.00,,,0.00,Custom/Perl,2013-02-04 17:24:00,
2013-02-04 11:29:00,43.0,34.8,29.83,NNW,334,6.0,-999.0,59,0.00,,,0.00,Custom/Perl,2013-02-04 17:29:00,
2013-02-04 11:34:00,43.0,35.0,29.83,West,276,4.0,-999.0,60,0.00,,,0.00,Custom/Perl,2013-02-04 17:34:00,
2013-02-04 11:39:00,43.5,35.7,29.83,NW,316,4.0,-999.0,61,0.00,,,0.00,Custom/Perl,2013-02-04 17:39:00,
2013-02-04 11:45:00,43.6,35.6,29.83,NW,323,3.0,-999.0,60,0.00,,,0.00,Custom/Perl,2013-02-04 17:45:00,
2013-02-04 11:50:00,43.2,35.4,29.83,NW,307,6.0,-999.0,61,0.00,,,0.00,Custom/Perl,2013-02-04 17:50:00,
2013-02-04 11:55:00,42.5,34.9,29.83,NNE,29,7.0,-999.0,62,0.00,,,0.00,Custom/Perl,2013-02-04 17:55:00,
2013-02-04 12:00:00,42.7,34.5,29.83,West,280,7.0,-999.0,59,0.00,,,0.00,Custom/Perl,2013-02-04 18:00:00,
2013-02-04 12:06:00,42.3,33.9,29.84,NNE,33,6.0,-999.0,58,0.00,,,0.00,Custom/Perl,2013-02-04 18:06:00,
2013-02-04 12:11:00,42.0,34.0,29.84,NNE,18,7.0,-999.0,60,0.00,,,0.00,Custom/Perl,2013-02-04 18:11:00,
2013-02-04 12:16:00,40.6,32.8,29.84,NW,315,11.0,-999.0,61,0.00,,,0.00,Custom/Perl,2013-02-04 18:16:00,
2013-02-04 12:21:00,40.4,32.8,29.83,NW,314,9.0,-999.0,62,0.00,,,0.00,Custom/Perl,2013-02-04 18:21:00,
2013-02-04 12:26:00,40.1,32.7,29.83,NNE,18,6.0,-999.0,63,0.00,,,0.00,Custom/Perl,2013-02-04 18:26:00,
2013-02-04 12:32:00,40.1,32.5,29.84,NW,308,7.0,-999.0,62,0.00,,,0.00,Custom/Perl,2013-02-04 18:32:00,
2013-02-04 12:37:00,39.8,32.4,29.84,NW,319,4.0,-999.0,63,0.00,,,0.00,Custom/Perl,2013-02-04 18:37:00,
2013-02-04 12:42:00,39.9,32.5,29.84,NW,308,7.0,-999.0,63,0.00,,,0.00,Custom/Perl,2013-02-04 18:42:00,
2013-02-04 12:47:00,39.7,32.3,29.84,North,354,4.0,-999.0,63,0.00,,,0.00,Custom/Perl,2013-02-04 18:47:00,
2013-02-04 12:52:00,39.4,31.8,29.84,NW,321,6.0,-999.0,62,0.00,,,0.00,Custom/Perl,2013-02-04 18:52:00,
2013-02-04 12:58:00,39.1,31.5,29.83,NNW,328,4.0,-999.0,62,0.00,,,0.00,Custom/Perl,2013-02-04 18:58:00,
2013-02-04 13:03:00,39.3,31.9,29.83,NW,307,4.0,-999.0,63,0.00,,,0.00,Custom/Perl,2013-02-04 19:03:00,
2013-02-04 13:08:00,39.9,31.9,29.83,North,356,7.0,-999.0,60,0.00,,,0.00,Custom/Perl,2013-02-04 19:08:00,
2013-02-04 13:13:00,40.2,32.6,29.83,WNW,303,3.0,-999.0,62,0.00,,,0.00,Custom/Perl,2013-02-04 19:13:00,
2013-02-04 13:19:00,40.4,32.4,29.84,NNW,328,4.0,-999.0,60,0.00,,,0.00,Custom/Perl,2013-02-04 19:19:00,
2013-02-04 13:24:00,40.1,32.1,29.83,NW,310,5.0,-999.0,60,0.00,,,0.00,Custom/Perl,2013-02-04 19:24:00,
2013-02-04 13:29:00,40.1,31.9,29.83,NE,53,7.0,-999.0,59,0.00,,,0.00,Custom/Perl,2013-02-04 19:29:00,
2013-02-04 13:34:00,40.0,32.0,29.83,WSW,241,4.0,-999.0,60,0.00,,,0.00,Custom/Perl,2013-02-04 19:34:00,
2013-02-04 13:40:00,39.7,31.9,29.83,NNE,22,2.0,-999.0,61,0.00,,,0.00,Custom/Perl,2013-02-04 19:40:00,
2013-02-04 13:45:00,40.2,32.4,29.82,WNW,300,3.0,-999.0,61,0.00,,,0.00,Custom/Perl,2013-02-04 19:45:00,
2013-02-04 13:50:00,40.2,32.4,29.82,NNW,348,5.0,-999.0,61,0.00,,,0.00,Custom/Perl,2013-02-04 19:50:00,
2013-02-04 13:55:00,40.3,32.3,29.83,NW,321,2.0,-999.0,60,0.00,,,0.00,Custom/Perl,2013-02-04 19:55:00,
2013-02-04 14:00:00,40.3,32.3,29.83,North,349,2.0,-999.0,60,0.00,,,0.00,Custom/Perl,2013-02-04 20:00:00,
2013-02-04 14:06:00,40.2,32.2,29.82,WNW,297,3.0,-999.0,60,0.00,,,0.00,Custom/Perl,2013-02-04 20:06:00,
2013-02-04 14:11:00,40.0,32.0,29.82,North,8,2.0,-999.0,60,0.00,,,0.00,Custom/Perl,2013-02-04 20:11:00,
2013-02-04 14:16:00,40.0,32.2,29.82,WNW,297,1.0,-999.0,61,0.00,,,0.00,Custom/Perl,2013-02-04 20:16:00,
2013-02-04 14:21:00,40.3,32.5,29.82,NW,312,3.0,-999.0,61,0.00,,,0.00,Custom/Perl,2013-02-04 20:21:00,
2013-02-04 14:26:00,39.9,31.9,29.82,NW,321,4.0,-999.0,60,0.00,,,0.00,Custom/Perl,2013-02-04 20:26:00,
2013-02-04 14:32:00,39.9,31.9,29.82,NNW,345,4.0,-999.0,60,0.00,,,0.00,Custom/Perl,2013-02-04 20:32:00,
2013-02-04 14:37:00,40.0,32.2,29.82,ESE,122,6.0,-999.0,61,0.00,,,0.00,Custom/Perl,2013-02-04 20:37:00,
2013-02-04 14:42:00,40.5,32.5,29.82,NNE,18,2.0,-999.0,60,0.00,,,0.00,Custom/Perl,2013-02-04 20:42:00,
2013-02-04 14:47:00,40.5,32.3,29.82,WNW,290,2.0,-999.0,59,0.00,,,0.00,Custom/Perl,2013-02-04 20:47:00,
2013-02-04 14:53:00,40.4,32.2,29.83,East,88,7.0,-999.0,59,0.00,,,0.00,Custom/Perl,2013-02-04 20:53:00,
2013-02-04 14:58:00,40.0,31.8,29.82,NW,314,2.0,-999.0,59,0.00,,,0.00,Custom/Perl,2013-02-04 20:58:00,
2013-02-04 15:03:00,40.0,31.8,29.82,WNW,283,1.0,-999.0,59,0.00,,,0.00,Custom/Perl,2013-02-04 21:03:00,
2013-02-04 15:08:00,40.1,31.7,29.83,NNE,30,4.0,-999.0,58,0.00,,,0.00,Custom/Perl,2013-02-04 21:08:00,
2013-02-04 15:14:00,39.7,31.5,29.83,NE,41,2.0,-999.0,59,0.00,,,0.00,Custom/Perl,2013-02-04 21:14:00,
2013-02-04 15:19:00,39.2,31.2,29.83,NNW,328,5.0,-999.0,60,0.00,,,0.00,Custom/Perl,2013-02-04 21:19:00,
2013-02-04 15:24:00,39.6,31.6,29.83,NNW,347,4.0,-999.0,60,0.00,,,0.00,Custom/Perl,2013-02-04 21:24:00,
2013-02-04 15:29:00,39.6,31.6,29.84,NNE,31,8.0,-999.0,60,0.00,,,0.00,Custom/Perl,2013-02-04 21:29:00,
2013-02-04 15:35:00,39.7,31.7,29.84,NW,316,4.0,-999.0,60,0.00,,,0.00,Custom/Perl,2013-02-04 21:35:00,
2013-02-04 15:40:00,39.1,31.1,29.84,NW,321,4.0,-999.0,60,0.00,,,0.00,Custom/Perl,2013-02-04 21:40:00,
2013-02-04 15:45:00,38.4,30.6,29.84,NW,323,5.0,-999.0,61,0.00,,,0.00,Custom/Perl,2013-02-04 21:45:00,
2013-02-04 15:50:00,38.1,30.5,29.84,NW,324,4.0,-999.0,62,0.00,,,0.00,Custom/Perl,2013-02-04 21:50:00,
2013-02-04 15:56:00,37.5,30.1,29.85,NNW,335,2.0,-999.0,63,0.00,,,0.00,Custom/Perl,2013-02-04 21:56:00,
2013-02-04 16:01:00,37.4,30.2,29.85,NNE,23,6.0,-999.0,64,0.00,,,0.00,Custom/Perl,2013-02-04 22:01:00,
2013-02-04 16:06:00,37.7,30.5,29.84,NW,304,3.0,-999.0,64,0.00,,,0.00,Custom/Perl,2013-02-04 22:06:00,
2013-02-04 16:11:00,38.5,30.9,29.84,NNW,346,2.0,-999.0,62,0.00,,,0.00,Custom/Perl,2013-02-04 22:11:00,
2013-02-04 16:16:00,38.0,30.4,29.84,NNW,333,5.0,-999.0,62,0.00,,,0.00,Custom/Perl,2013-02-04 22:16:00,
2013-02-04 16:22:00,37.5,30.3,29.84,NW,314,2.0,-999.0,64,0.00,,,0.00,Custom/Perl,2013-02-04 22:22:00,
2013-02-04 16:27:00,37.1,29.9,29.84,NW,314,1.0,-999.0,64,0.00,,,0.00,Custom/Perl,2013-02-04 22:27:00,
2013-02-04 16:32:00,37.0,29.8,29.84,NE,34,1.0,-999.0,64,0.00,,,0.00,Custom/Perl,2013-02-04 22:32:00,
2013-02-04 16:37:00,36.6,29.6,29.84,NE,46,1.0,-999.0,65,0.00,,,0.00,Custom/Perl,2013-02-04 22:37:00,
2013-02-04 16:43:00,36.7,29.7,29.84,North,10,2.0,-999.0,65,0.00,,,0.00,Custom/Perl,2013-02-04 22:43:00,
2013-02-04 16:48:00,36.8,29.8,29.84,WSW,241,1.0,-999.0,65,0.00,,,0.00,Custom/Perl,2013-02-04 22:48:00,
2013-02-04 16:53:00,36.9,29.9,29.84,NNE,26,0.0,-999.0,65,0.00,,,0.00,Custom/Perl,2013-02-04 22:53:00,
2013-02-04 16:58:00,36.9,29.9,29.84,NW,318,2.0,-999.0,65,0.00,,,0.00,Custom/Perl,2013-02-04 22:58:00,
2013-02-04 17:04:00,36.8,29.8,29.84,NNE,25,3.0,-999.0,65,0.00,,,0.00,Custom/Perl,2013-02-04 23:04:00,
2013-02-04 17:09:00,36.5,29.7,29.84,NNE,13,3.0,-999.0,66,0.00,,,0.00,Custom/Perl,2013-02-04 23:09:00,
2013-02-04 17:14:00,36.3,29.5,29.83,NW,315,0.0,-999.0,66,0.00,,,0.00,Custom/Perl,2013-02-04 23:14:00,
2013-02-04 17:19:00,36.2,29.4,29.83,WNW,282,2.0,-999.0,66,0.00,,,0.00,Custom/Perl,2013-02-04 23:19:00,
2013-02-04 17:24:00,35.8,29.2,29.83,NNW,348,1.0,-999.0,67,0.00,,,0.00,Custom/Perl,2013-02-04 23:24:00,
2013-02-04 17:30:00,35.5,28.9,29.84,NNE,15,2.0,-999.0,67,0.00,,,0.00,Custom/Perl,2013-02-04 23:30:00,
2013-02-04 17:35:00,34.9,28.5,29.83,NNE,14,0.0,-999.0,68,0.00,,,0.00,Custom/Perl,2013-02-04 23:35:00,
2013-02-04 17:40:00,34.4,28.2,29.83,North,359,2.0,-999.0,69,0.00,,,0.00,Custom/Perl,2013-02-04 23:40:00,
2013-02-04 17:45:00,33.9,27.9,29.83,NE,35,2.0,-999.0,70,0.00,,,0.00,Custom/Perl,2013-02-04 23:45:00,
2013-02-04 17:51:00,33.4,27.4,29.84,NNE,15,1.0,-999.0,70,0.00,,,0.00,Custom/Perl,2013-02-04 23:51:00,
2013-02-04 17:56:00,33.0,27.2,29.83,North,359,1.0,-999.0,71,0.00,,,0.00,Custom/Perl,2013-02-04 23:56:00,
2013-02-04 18:01:00,32.5,26.9,29.84,NNW,330,1.0,-999.0,72,0.00,,,0.00,Custom/Perl,2013-02-05 00:01:00,
2013-02-04 18:06:00,32.2,26.8,29.84,NNW,330,1.0,-999.0,73,0.00,,,0.00,Custom/Perl,2013-02-05 00:06:00,
2013-02-04 18:12:00,31.7,26.5,29.84,North,1,0.0,-999.0,74,0.00,,,0.00,Custom/Perl,2013-02-05 00:12:00,
2013-02-04 18:17:00,31.3,26.1,29.85,NNW,346,0.0,-999.0,74,0.00,,,0.00,Custom/Perl,2013-02-05 00:17:00,
2013-02-04 18:22:00,31.0,26.0,29.85,North,359,0.0,-999.0,75,0.00,,,0.00,Custom/Perl,2013-02-05 00:22:00,
2013-02-04 18:27:00,30.7,25.9,29.85,North,6,0.0,-999.0,76,0.00,,,0.00,Custom/Perl,2013-02-05 00:27:00,
2013-02-04 18:33:00,30.5,25.7,29.85,NNE,13,0.0,-999.0,76,0.00,,,0.00,Custom/Perl,2013-02-05 00:33:00,
2013-02-04 18:38:00,30.4,25.8,29.85,NNE,15,0.0,-999.0,77,0.00,,,0.00,Custom/Perl,2013-02-05 00:38:00,
2013-02-04 18:43:00,30.2,25.6,29.85,North,356,0.0,-999.0,77,0.00,,,0.00,Custom/Perl,2013-02-05 00:43:00,
2013-02-04 18:48:00,30.0,25.4,29.85,NNE,31,1.0,-999.0,77,0.00,,,0.00,Custom/Perl,2013-02-05 00:48:00,
2013-02-04 18:53:00,29.8,25.4,29.85,NNE,14,1.0,-999.0,78,0.00,,,0.00,Custom/Perl,2013-02-05 00:53:00,
2013-02-04 18:59:00,29.8,25.4,29.85,NNE,33,0.0,-999.0,78,0.00,,,0.00,Custom/Perl,2013-02-05 00:59:00,
2013-02-04 19:04:00,29.7,25.3,29.85,NE,37,0.0,-999.0,78,0.00,,,0.00,Custom/Perl,2013-02-05 01:04:00,
2013-02-04 19:09:00,29.6,25.2,29.85,NNE,32,2.0,-999.0,78,0.00,,,0.00,Custom/Perl,2013-02-05 01:09:00,
2013-02-04 19:14:00,29.4,25.2,29.85,NNE,14,0.0,-999.0,79,0.00,,,0.00,Custom/Perl,2013-02-05 01:14:00,
2013-02-04 19:20:00,29.2,24.8,29.86,NNE,30,0.0,-999.0,78,0.00,,,0.00,Custom/Perl,2013-02-05 01:20:00,
2013-02-04 19:25:00,28.9,24.7,29.86,NNE,30,0.0,-999.0,79,0.00,,,0.00,Custom/Perl,2013-02-05 01:25:00,
2013-02-04 19:30:00,28.6,24.6,29.86,North,6,1.0,-999.0,80,0.00,,,0.00,Custom/Perl,2013-02-05 01:30:00,
2013-02-04 19:35:00,28.4,24.4,29.86,NNE,14,0.0,-999.0,80,0.00,,,0.00,Custom/Perl,2013-02-05 01:35:00,
2013-02-04 19:41:00,28.2,24.2,29.86,NNE,14,0.0,-999.0,80,0.00,,,0.00,Custom/Perl,2013-02-05 01:41:00,
2013-02-04 19:46:00,28.1,24.3,29.86,NNE,21,0.0,-999.0,81,0.00,,,0.00,Custom/Perl,2013-02-05 01:46:00,
2013-02-04 19:51:00,28.0,24.2,29.86,NNE,27,0.0,-999.0,81,0.00,,,0.00,Custom/Perl,2013-02-05 01:51:00,
2013-02-04 19:56:00,27.9,24.1,29.87,NNE,25,0.0,-999.0,81,0.00,,,0.00,Custom/Perl,2013-02-05 01:56:00,
2013-02-04 20:02:00,27.7,23.9,29.87,NNE,25,0.0,-999.0,81,0.00,,,0.00,Custom/Perl,2013-02-05 02:02:00,
2013-02-04 20:07:00,27.4,23.8,29.87,NNE,25,0.0,-999.0,82,0.00,,,0.00,Custom/Perl,2013-02-05 02:07:00,
2013-02-04 20:12:00,27.0,23.4,29.87,NNE,25,0.0,-999.0,82,0.00,,,0.00,Custom/Perl,2013-02-05 02:12:00,
2013-02-04 20:17:00,26.6,23.2,29.87,NNE,25,0.0,-999.0,83,0.00,,,0.00,Custom/Perl,2013-02-05 02:17:00,
2013-02-04 20:22:00,26.0,22.6,29.87,NNE,25,0.0,-999.0,83,0.00,,,0.00,Custom/Perl,2013-02-05 02:22:00,
2013-02-04 20:28:00,25.6,22.4,29.87,NNE,25,0.0,-999.0,84,0.00,,,0.00,Custom/Perl,2013-02-05 02:28:00,
2013-02-04 20:33:00,25.4,22.4,29.87,NNE,25,0.0,-999.0,85,0.00,,,0.00,Custom/Perl,2013-02-05 02:33:00,
2013-02-04 20:38:00,25.1,22.1,29.86,NNE,25,0.0,-999.0,85,0.00,,,0.00,Custom/Perl,2013-02-05 02:38:00,
2013-02-04 20:43:00,24.9,22.1,29.87,NNE,25,0.0,-999.0,86,0.00,,,0.00,Custom/Perl,2013-02-05 02:43:00,
2013-02-04 20:49:00,24.6,21.8,29.87,NNE,25,0.0,-999.0,86,0.00,,,0.00,Custom/Perl,2013-02-05 02:49:00,
2013-02-04 20:54:00,24.4,21.6,29.87,NNE,25,0.0,-999.0,86,0.00,,,0.00,Custom/Perl,2013-02-05 02:54:00,
2013-02-04 20:59:00,24.2,21.6,29.87,NNE,25,0.0,-999.0,87,0.00,,,0.00,Custom/Perl,2013-02-05 02:59:00,
2013-02-04 21:04:00,24.2,21.2,29.87,NNE,25,0.0,-999.0,85,0.00,,,0.00,Custom/Perl,2013-02-05 03:04:00,
2013-02-04 21:10:00,24.0,21.2,29.87,NNE,25,0.0,-999.0,86,0.00,,,0.00,Custom/Perl,2013-02-05 03:10:00,
2013-02-04 21:15:00,23.9,21.1,29.86,NNE,25,0.0,-999.0,86,0.00,,,0.00,Custom/Perl,2013-02-05 03:15:00,
2013-02-04 21:20:00,23.7,21.1,29.87,NNE,25,0.0,-999.0,87,0.00,,,0.00,Custom/Perl,2013-02-05 03:20:00,
2013-02-04 21:25:00,23.6,20.8,29.87,NNE,25,0.0,-999.0,86,0.00,,,0.00,Custom/Perl,2013-02-05 03:25:00,
2013-02-04 21:31:00,23.6,20.8,29.87,NNE,25,0.0,-999.0,86,0.00,,,0.00,Custom/Perl,2013-02-05 03:31:00,
2013-02-04 21:36:00,23.4,20.8,29.87,NNE,25,0.0,-999.0,87,0.00,,,0.00,Custom/Perl,2013-02-05 03:36:00,
2013-02-04 21:41:00,23.5,20.9,29.87,NNE,25,0.0,-999.0,87,0.00,,,0.00,Custom/Perl,2013-02-05 03:41:00,
2013-02-04 21:46:00,23.5,20.9,29.88,NNE,25,0.0,-999.0,87,0.00,,,0.00,Custom/Perl,2013-02-05 03:46:00,
2013-02-04 21:51:00,23.2,20.4,29.88,NNE,25,0.0,-999.0,86,0.00,,,0.00,Custom/Perl,2013-02-05 03:51:00,
2013-02-04 21:57:00,23.1,20.3,29.88,NNE,25,0.0,-999.0,86,0.00,,,0.00,Custom/Perl,2013-02-05 03:57:00,
2013-02-04 22:02:00,22.7,20.1,29.89,WNW,288,0.0,-999.0,87,0.00,,,0.00,Custom/Perl,2013-02-05 04:02:00,
2013-02-04 22:07:00,22.6,20.2,29.88,WNW,288,0.0,-999.0,88,0.00,,,0.00,Custom/Perl,2013-02-05 04:07:00,
2013-02-04 22:12:00,22.7,20.5,29.88,WNW,288,0.0,-999.0,89,0.00,,,0.00,Custom/Perl,2013-02-05 04:12:00,
2013-02-04 22:18:00,22.7,20.3,29.88,SW,223,0.0,-999.0,88,0.00,,,0.00,Custom/Perl,2013-02-05 04:18:00,
2013-02-04 22:23:00,22.5,20.1,29.88,SW,223,0.0,-999.0,88,0.00,,,0.00,Custom/Perl,2013-02-05 04:23:00,
2013-02-04 22:28:00,22.2,19.8,29.89,SW,223,0.0,-999.0,88,0.00,,,0.00,Custom/Perl,2013-02-05 04:28:00,
2013-02-04 22:33:00,22.1,19.7,29.88,SW,223,0.0,-999.0,88,0.00,,,0.00,Custom/Perl,2013-02-05 04:33:00,
2013-02-04 22:39:00,22.0,19.8,29.88,SW,223,0.0,-999.0,89,0.00,,,0.00,Custom/Perl,2013-02-05 04:39:00,
2013-02-04 22:44:00,21.9,19.7,29.87,SW,223,0.0,-999.0,89,0.00,,,0.00,Custom/Perl,2013-02-05 04:44:00,
2013-02-04 22:49:00,21.9,19.9,29.87,SW,223,0.0,-999.0,90,0.00,,,0.00,Custom/Perl,2013-02-05 04:49:00,
2013-02-04 22:54:00,22.0,20.2,29.86,SW,223,0.0,-999.0,91,0.00,,,0.00,Custom/Perl,2013-02-05 04:54:00,
2013-02-04 23:00:00,22.0,20.2,29.86,SW,223,0.0,-999.0,91,0.00,,,0.00,Custom/Perl,2013-02-05 05:00:00,
2013-02-04 23:01:00,22.0,20.2,29.86,SW,223,0.0,-999.0,91,0.00,,,0.00,Custom/Perl,2013-02-05 05:01:00,
2013-02-04 23:02:00,21.9,19.9,29.86,SW,223,0.0,-999.0,90,0.00,,,0.00,Custom/Perl,2013-02-05 05:02:00,
2013-02-04 23:07:00,21.7,19.5,29.86,SW,223,0.0,-999.0,89,0.00,,,0.00,Custom/Perl,2013-02-05 05:07:00,
2013-02-04 23:13:00,21.5,19.3,29.86,SW,223,0.0,-999.0,89,0.00,,,0.00,Custom/Perl,2013-02-05 05:13:00,
2013-02-04 23:18:00,21.3,19.3,29.85,SW,223,0.0,-999.0,90,0.00,,,0.00,Custom/Perl,2013-02-05 05:18:00,
2013-02-04 23:23:00,21.1,19.1,29.85,SW,223,0.0,-999.0,90,0.00,,,0.00,Custom/Perl,2013-02-05 05:23:00,
2013-02-04 23:28:00,21.0,18.8,29.84,SW,223,0.0,-999.0,89,0.00,,,0.00,Custom/Perl,2013-02-05 05:28:00,
2013-02-04 23:33:00,20.8,18.6,29.85,SW,223,0.0,-999.0,89,0.00,,,0.00,Custom/Perl,2013-02-05 05:33:00,
2013-02-04 23:39:00,20.6,18.4,29.85,SW,223,0.0,-999.0,89,0.00,,,0.00,Custom/Perl,2013-02-05 05:39:00,
2013-02-04 23:44:00,20.5,18.3,29.84,SW,223,0.0,-999.0,89,0.00,,,0.00,Custom/Perl,2013-02-05 05:44:00,
2013-02-04 23:49:00,20.5,18.5,29.83,SW,223,0.0,-999.0,90,0.00,,,0.00,Custom/Perl,2013-02-05 05:49:00,
2013-02-04 23:54:00,20.7,18.9,29.84,SW,223,0.0,-999.0,91,0.00,,,0.00,Custom/Perl,2013-02-05 05:54:00,